Flight Track Log - Related Links

Times and Time Zones

All times are in EST time to prevent confusion due to time zone crossing. See the N589H flight status page for this flight to view local times or setup timezone preferences in your user account.

Time Position Orientation Groundspeed Altitude Reporting Facility
EST Latitude Longitude Course Direction KTS MPH feet Rate Location/Type
Wed 05:15:56 AM 27.9000 -82.6833 204° Southwest 153 176 400  Level Tampa TRACON
Wed 05:16:37 AM 27.8667 -82.7000 204° Southwest 153 176 2,000 2,554 Climbing Tampa TRACON
Wed 05:18:24 AM 27.7839 -82.6883 173° South 201 231 6,700 2,526 Climbing Miami Center
Wed 05:20:25 AM 27.6769 -82.6503 163° South 199 229 11,600 2,308 Climbing Miami Center
Wed 05:21:26 AM 27.6194 -82.6261 160° South 209 241 13,700 2,066 Climbing Miami Center
Wed 05:22:27 AM 27.5561 -82.5950 156° South 233 268 15,800 1,636 Climbing Miami Center
Wed 05:23:27 AM 27.4886 -82.5611 156° South 246 283 17,000 610 Climbing Miami Center
Wed 05:24:25 AM 27.4311 -82.4833 130° Southeast 284 327 17,000  Level Miami Center
Wed 05:25:25 AM 27.3694 -82.4011 130° Southeast 315 362 17,000  Level Miami Center
Wed 05:26:24 AM 27.3100 -82.3186 129° Southeast 334 384 17,000  Level Miami Center
Wed 05:27:24 AM 27.2506 -82.2389 130° Southeast 340 391 17,000  Level Miami Center
Wed 05:28:24 AM 27.1908 -82.1567 129° Southeast 345 397 17,000  Level Miami Center
Wed 05:29:25 AM 27.1333 -82.0772 129° Southeast 345 397 17,000  Level Miami Center
Wed 05:30:25 AM 27.0736 -81.9975 130° Southeast 340 391 17,000  Level Miami Center
Wed 05:31:26 AM 27.0117 -81.9178 131° Southeast 340 391 17,000  Level Miami Center
Wed 05:32:26 AM 26.9539 -81.8339 128° Southeast 340 391 17,000  Level Miami Center
Wed 05:33:25 AM 26.9022 -81.7617 129° Southeast 340 391 17,000  Level Miami Center
Wed 05:34:26 AM 26.8342 -81.6728 131° Southeast 340 391 17,000  Level Miami Center
Wed 05:35:26 AM 26.7653 -81.6072 140° Southeast 332 382 17,000  Level Miami Center
Wed 05:36:26 AM 26.6900 -81.5508 146° Southeast 332 382 17,000  Level Miami Center
Wed 05:37:25 AM 26.6122 -81.4967 148° Southeast 332 382 17,000  Level Miami Center
Wed 05:38:24 AM 26.5369 -81.4403 146° Southeast 332 382 17,000  Level Miami Center
Wed 05:39:25 AM 26.4614 -81.3861 147° Southeast 326 375 17,000  Level Miami Center
Wed 05:40:26 AM 26.3858 -81.3322 147° Southeast 326 375 17,000  Level Miami Center
Wed 05:41:26 AM 26.3122 -81.2761 146° Southeast 319 367 17,000 -50 Level Miami Center
Wed 05:42:27 AM 26.2344 -81.2225 148° Southeast 319 367 16,900 -700 Descending Miami Center
Wed 05:43:26 AM 26.1608 -81.1689 147° Southeast 319 367 15,600 -1,308 Descending Miami Center
Wed 05:43:45 AM 26.1322 -81.1539 155° Southeast 324 373 15,200 -1,345 Descending Miami Center
Wed 05:44:24 AM 26.0853 -81.1131 142° Southeast 319 367 14,300 -1,429 Descending Miami Center
Wed 05:44:27 AM 26.0811 -81.1150 203° Southwest 325 374 14,200 -1,180 Descending Miami Center
Wed 05:45:25 AM 26.0139 -81.0594 143° Southeast 313 360 13,100 -1,082 Descending Miami Center
Wed 05:45:28 AM 26.0075 -81.0594 180° South 315 362 13,100 -1,424 Level Miami Center
Wed 05:46:24 AM 25.9486 -80.9972 136° Southeast 313 360 11,700 -1,525 Descending Miami Center
Wed 05:46:27 AM 25.9444 -80.9969 177° South 309 356 11,600 -1,552 Descending Miami Center
Wed 05:47:22 AM 25.9239 -80.9108 105° East 317 365 10,200 -1,448 Descending Miami Center
Wed 05:47:25 AM 25.9264 -80.9042 67° East 291 335 10,200 -1,429 Level Miami Center
Wed 05:48:25 AM 25.9100 -80.8064 101° East 297 342 8,700 -1,627 Descending Miami Center
Wed 05:49:23 AM 25.8978 -80.7206 99° East 305 351 7,000 -1,574 Descending Miami Center
Wed 05:49:26 AM 25.9000 -80.7139 70° East 297 342 7,100 -1,770 Climbing Miami Center
Wed 05:50:24 AM 25.8836 -80.6278 102° East 279 321 5,200 -1,672 Descending Miami Center
Wed 05:50:27 AM 25.8875 -80.6303 330° Northwest 292 336 5,400 -1,500 Climbing Miami Center
Wed 05:51:24 AM 25.8731 -80.5467 101° East 280 322 3,700 -1,800 Descending Miami Center
Wed 05:51:27 AM 25.8689 -80.5489 206° Southwest 264 304 3,600 -1,400 Descending Miami Center
Wed 05:52:24 AM 25.8539 -80.4747 103° East 259 298 2,300 -1,400 Descending Miami Center
Wed 05:52:27 AM 25.8517 -80.4769 222° Southwest 243 280 2,200 -800 Descending Miami Center
Wed 05:53:24 AM 25.8281 -80.4183 114° Southeast 233 268 1,500 -700 Descending Miami Center
Wed 05:53:27 AM 25.8261 -80.4183 180° South 199 229 1,500 -92 Level Miami Center
Wed 05:54:29 AM 25.8061 -80.3739 117° Southeast 137 158 1,400 -439 Descending Miami Center
Wed 05:55:30 AM 25.7967 -80.3392 107° East 118 136 600 -787 Descending Miami Center
Wed 05:57:00 AM 25.7954 -80.2901 107° East  Level Estimated
Wed 06:04:00 AM 25.7954 -80.2901 107° East  Level Estimated

Login

Don't have an account? Register now (free) for customized features, flight alerts, and more!